Aviation Digital Data Service (ADDS)

Output produced by METARs form (2339 UTC 25 February 2018)
found at http://www.aviationweather.gov/adds/metars/
 
MRLB 252300Z 09016KT CAVOK 29/18 A29085 NOSIG
MRLB 252300Z 2600/2624 07015KT 9999 FEW035 TX34/2619Z TN24/2612Z 
     BECMG 2603/2606 26006KT 
     BECMG 2614/2617 08015KT
       
MRPV 252300Z 10009KT 9999 FEW025 BKN100 20/13 A3005 NOSIG
MRPV 252300Z 2600/2624 10010KT 9999 FEW035 TX27/2618Z TN18/2610Z 
     TEMPO 2620/2622 RA
       
MRLM 252300Z 04003KT CAVOK 26/21 A2992
MRLM 252300Z 2600/2624 06007KT 9999 FEW020 TX29/2619Z TN22/2612Z 
     BECMG 2600/2603 25005KT 
     BECMG 2615/2618 05007KT
       
MROC 252300Z 08005KT 9999 FEW030 BKN100 21/18 A3002 NOSIG
MROC 252300Z 2600/2624 09010KT 9999 FEW040 TX29/2619Z TN19/2611Z 
     BECMG 2616/2619 25010KT 
     TEMPO 2620/2624 TSRA FEW025CB